createdAt,value
2019-05-16T00:00:32.382Z,1.80
2019-05-16T00:01:32.363Z,2.00
2019-05-16T00:02:32.352Z,2.30
2019-05-16T00:03:32.313Z,1.80
2019-05-16T00:04:32.323Z,2.30
2019-05-16T00:05:32.298Z,2.00
2019-05-16T00:06:32.310Z,2.60
2019-05-16T00:07:32.303Z,2.70
2019-05-16T00:08:32.313Z,2.00
2019-05-16T00:09:32.245Z,2.40
2019-05-16T00:10:32.245Z,1.90
2019-05-16T00:11:32.224Z,2.40
2019-05-16T00:12:32.244Z,2.10
2019-05-16T00:13:32.231Z,1.70
2019-05-16T00:14:32.190Z,3.40
2019-05-16T00:15:32.193Z,2.40
2019-05-16T00:16:32.173Z,2.70
2019-05-16T00:17:32.161Z,1.90
2019-05-16T00:18:32.183Z,2.30
2019-05-16T00:19:32.153Z,3.50
2019-05-16T00:20:32.127Z,3.30
2019-05-16T00:21:32.134Z,2.10
2019-05-16T00:22:32.110Z,2.80
2019-05-16T00:23:32.099Z,2.10
2019-05-16T00:24:32.119Z,2.50
2019-05-16T00:25:32.089Z,4.00
2019-05-16T00:26:32.059Z,1.90
2019-05-16T00:27:32.051Z,2.90
2019-05-16T00:28:32.056Z,2.30
2019-05-16T00:29:32.060Z,2.20
2019-05-16T00:30:32.028Z,2.60
2019-05-16T00:31:32.006Z,3.50
2019-05-16T00:32:31.995Z,2.30
2019-05-16T00:33:31.986Z,2.60
2019-05-16T00:34:32.019Z,2.10
2019-05-16T00:35:31.999Z,3.00
2019-05-16T00:36:31.961Z,3.10
2019-05-16T00:37:31.943Z,2.00
2019-05-16T00:38:31.931Z,3.40
2019-05-16T00:39:31.924Z,3.00
2019-05-16T00:40:31.940Z,2.90
2019-05-16T00:41:31.934Z,3.50
2019-05-16T00:42:31.895Z,2.70
2019-05-16T00:43:31.877Z,3.00
2019-05-16T00:44:31.864Z,2.20
2019-05-16T00:45:31.854Z,2.60
2019-05-16T00:46:31.897Z,4.00
2019-05-16T00:47:31.865Z,2.30
2019-05-16T00:48:31.846Z,2.90
2019-05-16T00:49:31.820Z,2.20
2019-05-16T00:50:31.802Z,1.90
2019-05-16T00:51:31.787Z,2.30
2019-05-16T00:52:31.794Z,3.20
2019-05-16T00:53:31.809Z,2.20
2019-05-16T00:54:31.768Z,5.30
2019-05-16T00:55:31.745Z,2.90
2019-05-16T00:56:31.732Z,2.20
2019-05-16T00:57:31.726Z,2.80
2019-05-16T00:58:31.719Z,4.20
2019-05-16T00:59:31.750Z,2.60
2019-05-16T01:00:31.693Z,2.40
2019-05-16T01:01:31.683Z,2.90
2019-05-16T01:02:31.670Z,2.50
2019-05-16T01:03:31.665Z,1.70
2019-05-16T01:04:31.686Z,2.30
2019-05-16T01:05:31.694Z,2.50
2019-05-16T01:06:31.625Z,3.20
2019-05-16T01:07:31.630Z,2.00
2019-05-16T01:08:31.602Z,2.70
2019-05-16T01:09:31.604Z,2.00
2019-05-16T01:10:31.627Z,2.90
2019-05-16T01:11:31.610Z,2.00
2019-05-16T01:12:31.566Z,2.40
2019-05-16T01:13:31.551Z,2.50
2019-05-16T01:14:31.544Z,2.20
2019-05-16T01:15:31.558Z,3.80
2019-05-16T01:16:31.525Z,1.50
2019-05-16T01:17:31.554Z,1.70
2019-05-16T01:18:31.497Z,2.30
2019-05-16T01:19:31.481Z,2.00
2019-05-16T01:20:31.507Z,2.70
2019-05-16T01:21:31.465Z,2.10
2019-05-16T01:22:31.501Z,1.90
2019-05-16T01:23:31.469Z,2.90
2019-05-16T01:24:31.432Z,1.70
2019-05-16T01:25:31.418Z,2.10
2019-05-16T01:26:31.414Z,2.00
2019-05-16T01:27:31.394Z,2.20
2019-05-16T01:28:31.407Z,1.60
2019-05-16T01:29:31.411Z,2.40
2019-05-16T01:30:31.360Z,2.30
2019-05-16T01:31:31.352Z,2.90
2019-05-16T01:32:32.241Z,2.80
2019-05-16T01:33:31.329Z,2.10
2019-05-16T01:34:31.344Z,2.50
2019-05-16T01:35:31.343Z,1.80
2019-05-16T01:36:36.678Z,4.80
2019-05-16T01:37:31.287Z,1.70
2019-05-16T01:38:31.288Z,1.60
2019-05-16T01:39:31.296Z,2.80
2019-05-16T01:40:31.262Z,2.10
2019-05-16T01:41:31.267Z,2.50
2019-05-16T01:42:31.230Z,2.30
2019-05-16T01:43:31.219Z,2.70
2019-05-16T01:44:31.209Z,3.00
2019-05-16T01:45:31.234Z,2.20
2019-05-16T01:46:31.216Z,2.10
2019-05-16T01:47:31.188Z,2.70
2019-05-16T01:48:31.166Z,3.20
2019-05-16T01:49:31.160Z,2.50
2019-05-16T01:50:31.144Z,1.30
2019-05-16T01:51:31.156Z,2.20
2019-05-16T01:52:31.123Z,1.50
2019-05-16T01:53:31.129Z,2.40
2019-05-16T01:54:31.101Z,2.00
2019-05-16T01:55:31.095Z,2.40
2019-05-16T01:56:31.113Z,2.40
2019-05-16T01:57:31.073Z,1.70
2019-05-16T01:58:31.061Z,1.60
2019-05-16T01:59:31.055Z,3.10
2019-05-16T02:00:36.797Z,1.40
2019-05-16T02:01:32.062Z,3.10
2019-05-16T02:02:31.025Z,2.40
2019-05-16T02:03:31.018Z,2.10
2019-05-16T02:04:31.015Z,1.40
2019-05-16T02:05:30.979Z,1.40
2019-05-16T02:06:30.968Z,2.00
2019-05-16T02:07:30.982Z,1.70
2019-05-16T02:08:30.953Z,1.70
2019-05-16T02:09:30.950Z,2.60
2019-05-16T02:10:30.953Z,1.90
2019-05-16T02:11:30.914Z,2.50
2019-05-16T02:12:30.904Z,2.20
2019-05-16T02:13:30.920Z,2.70
2019-05-16T02:14:30.889Z,2.60
2019-05-16T02:15:30.892Z,2.00
2019-05-16T02:16:30.889Z,2.10
2019-05-16T02:17:30.848Z,1.50
2019-05-16T02:18:30.869Z,1.70
2019-05-16T02:19:30.857Z,1.90
2019-05-16T02:20:30.827Z,2.50
2019-05-16T02:21:30.804Z,2.00
2019-05-16T02:22:30.837Z,2.00
2019-05-16T02:23:30.806Z,3.00
2019-05-16T02:24:30.812Z,2.50
2019-05-16T02:25:30.760Z,3.10
2019-05-16T02:26:30.753Z,1.80
2019-05-16T02:27:30.758Z,2.70
2019-05-16T02:28:39.259Z,1.70
2019-05-16T02:29:30.744Z,1.70
2019-05-16T02:30:31.510Z,2.40
2019-05-16T02:31:31.415Z,1.90
2019-05-16T02:32:31.477Z,2.20
2019-05-16T02:33:31.623Z,2.10
2019-05-16T02:34:30.912Z,2.00
2019-05-16T02:35:31.230Z,2.80
2019-05-16T02:36:31.440Z,1.80
2019-05-16T02:37:34.385Z,2.20
2019-05-16T02:38:31.697Z,1.70
2019-05-16T02:39:30.871Z,1.80
2019-05-16T02:40:31.499Z,1.80
2019-05-16T02:41:31.130Z,1.40
2019-05-16T02:42:31.227Z,1.80
2019-05-16T02:43:31.474Z,1.90
2019-05-16T02:44:31.892Z,2.20
2019-05-16T02:45:32.548Z,2.50
2019-05-16T02:46:30.912Z,2.10
2019-05-16T02:47:30.887Z,3.20
2019-05-16T02:48:31.687Z,3.00
2019-05-16T02:49:34.054Z,2.10
2019-05-16T02:50:31.530Z,3.30
2019-05-16T02:51:31.501Z,2.90
2019-05-16T02:52:31.738Z,3.50
2019-05-16T02:53:31.159Z,1.50
2019-05-16T02:54:31.614Z,2.00
2019-05-16T02:55:30.923Z,1.80
2019-05-16T02:56:31.776Z,2.20
2019-05-16T02:57:31.620Z,1.60
2019-05-16T02:58:30.853Z,1.90
2019-05-16T02:59:30.825Z,1.40
2019-05-16T03:00:30.933Z,2.00
2019-05-16T03:01:31.699Z,2.70
2019-05-16T03:02:31.215Z,1.90
2019-05-16T03:03:31.610Z,2.10
2019-05-16T03:04:30.850Z,1.80
2019-05-16T03:05:30.606Z,1.50
2019-05-16T03:06:32.117Z,2.20
2019-05-16T03:07:41.141Z,1.60
2019-05-16T03:08:32.120Z,2.60
2019-05-16T03:09:30.583Z,3.00
2019-05-16T03:10:31.096Z,1.80
2019-05-16T03:11:31.435Z,2.20
2019-05-16T03:12:31.072Z,1.80
2019-05-16T03:13:31.126Z,1.70
2019-05-16T03:14:31.599Z,2.10
2019-05-16T03:15:30.944Z,2.30
2019-05-16T03:16:31.615Z,2.50
2019-05-16T03:17:31.739Z,2.20
2019-05-16T03:18:31.033Z,2.50
2019-05-16T03:19:31.191Z,2.90
2019-05-16T03:20:31.538Z,1.80
2019-05-16T03:21:30.841Z,2.20
2019-05-16T03:22:31.490Z,2.80
2019-05-16T03:23:30.868Z,2.70
2019-05-16T03:24:31.033Z,1.90
2019-05-16T03:25:31.008Z,2.80
2019-05-16T03:26:31.507Z,2.10
2019-05-16T03:27:30.717Z,3.50
2019-05-16T03:28:30.786Z,2.10
2019-05-16T03:29:30.848Z,2.00
2019-05-16T03:30:35.143Z,2.50
2019-05-16T03:31:34.203Z,1.90
2019-05-16T03:32:33.921Z,2.20
2019-05-16T03:33:38.969Z,3.40
2019-05-16T03:34:34.251Z,2.90
2019-05-16T03:35:33.909Z,2.90
2019-05-16T03:36:34.420Z,4.30
2019-05-16T03:37:30.795Z,2.00
2019-05-16T03:38:30.851Z,3.70
2019-05-16T03:39:31.390Z,3.00
2019-05-16T03:40:31.427Z,3.10
2019-05-16T03:41:30.869Z,2.10
2019-05-16T03:42:31.061Z,1.60
2019-05-16T03:43:30.940Z,1.90
2019-05-16T03:44:31.731Z,3.30
2019-05-16T03:45:31.979Z,2.70
2019-05-16T03:46:30.911Z,3.80
2019-05-16T03:47:31.384Z,2.20
2019-05-16T03:48:31.566Z,3.90
2019-05-16T03:49:31.215Z,3.60
2019-05-16T03:50:30.702Z,2.80
2019-05-16T03:51:30.878Z,3.30
2019-05-16T03:52:31.004Z,2.10
2019-05-16T03:53:31.733Z,4.70
2019-05-16T03:54:31.448Z,3.10
2019-05-16T03:55:32.566Z,3.20
2019-05-16T03:56:30.662Z,3.50
2019-05-16T03:57:30.667Z,2.30
2019-05-16T03:58:31.044Z,2.10
2019-05-16T03:59:31.557Z,2.20
2019-05-16T04:00:31.619Z,2.90
2019-05-16T04:01:31.280Z,4.00
2019-05-16T04:02:30.957Z,3.10
2019-05-16T04:03:33.005Z,2.70
2019-05-16T04:04:30.879Z,3.50
2019-05-16T04:05:31.817Z,2.60
2019-05-16T04:06:31.140Z,2.30
2019-05-16T04:07:31.717Z,3.30
2019-05-16T04:08:30.997Z,2.10
2019-05-16T04:09:31.514Z,2.70
2019-05-16T04:10:30.900Z,3.50
2019-05-16T04:11:32.076Z,2.10
2019-05-16T04:12:30.974Z,2.50
2019-05-16T04:13:31.424Z,2.70
2019-05-16T04:14:30.873Z,2.10
2019-05-16T04:15:31.086Z,2.30
2019-05-16T04:16:31.301Z,3.00
2019-05-16T04:17:31.750Z,3.40
2019-05-16T04:18:31.825Z,2.40
2019-05-16T04:19:31.385Z,2.20
2019-05-16T04:20:30.463Z,2.50
2019-05-16T04:21:32.362Z,2.50
2019-05-16T04:22:31.872Z,2.70
2019-05-16T04:23:31.365Z,3.70
2019-05-16T04:24:31.631Z,3.10
2019-05-16T04:25:31.140Z,2.20
2019-05-16T04:26:30.896Z,3.60
2019-05-16T04:27:30.956Z,2.30
2019-05-16T04:28:31.855Z,3.10
2019-05-16T04:29:31.671Z,1.90
2019-05-16T04:30:31.250Z,2.70
2019-05-16T04:31:30.812Z,2.50
2019-05-16T04:32:31.584Z,2.70
2019-05-16T04:33:30.892Z,2.90
2019-05-16T04:34:31.083Z,3.50
2019-05-16T04:35:31.683Z,3.00
2019-05-16T04:36:32.459Z,2.00
2019-05-16T04:37:31.351Z,2.10
2019-05-16T04:38:39.586Z,3.60
2019-05-16T04:39:32.040Z,2.30
2019-05-16T04:40:31.133Z,2.30
2019-05-16T04:41:31.273Z,2.30
2019-05-16T04:42:31.096Z,2.50
2019-05-16T04:43:31.579Z,2.80
2019-05-16T04:44:30.987Z,2.50
2019-05-16T04:45:31.800Z,3.40
2019-05-16T04:46:31.432Z,2.80
2019-05-16T04:47:31.643Z,3.50
2019-05-16T04:48:31.010Z,2.90
2019-05-16T04:49:31.909Z,2.90
2019-05-16T04:50:31.177Z,2.20
2019-05-16T04:51:30.652Z,2.40
2019-05-16T04:52:30.659Z,2.80
2019-05-16T04:53:31.680Z,4.80
2019-05-16T04:54:30.815Z,2.90
2019-05-16T04:55:31.654Z,3.20
2019-05-16T04:56:30.884Z,2.30
2019-05-16T04:57:31.346Z,3.00
2019-05-16T04:58:31.648Z,2.60
2019-05-16T04:59:31.173Z,3.20
2019-05-16T05:00:31.977Z,4.00
2019-05-16T05:01:30.779Z,3.30
2019-05-16T05:02:30.916Z,2.20
2019-05-16T05:03:31.530Z,2.40
2019-05-16T05:04:30.596Z,2.80
2019-05-16T05:05:33.091Z,2.80
2019-05-16T05:06:31.329Z,3.70
2019-05-16T05:07:31.210Z,3.00
2019-05-16T05:08:30.787Z,2.20
2019-05-16T05:09:31.603Z,3.30
2019-05-16T05:10:31.276Z,4.70
2019-05-16T05:11:30.693Z,2.60
2019-05-16T05:12:31.504Z,2.70
2019-05-16T05:13:30.682Z,3.00
2019-05-16T05:14:30.802Z,3.10
2019-05-16T05:15:30.590Z,3.90
2019-05-16T05:16:30.637Z,2.50
2019-05-16T05:17:30.668Z,2.40
2019-05-16T05:18:30.319Z,2.50
2019-05-16T05:19:30.638Z,2.80
2019-05-16T05:20:30.401Z,2.80
2019-05-16T05:21:31.209Z,2.50
2019-05-16T05:22:30.452Z,3.00
2019-05-16T05:23:30.136Z,2.70
2019-05-16T05:24:30.266Z,3.10
2019-05-16T05:25:30.890Z,2.80
2019-05-16T05:26:30.588Z,2.50
2019-05-16T05:27:30.339Z,2.20
2019-05-16T05:28:29.923Z,3.40
2019-05-16T05:29:30.738Z,3.00
2019-05-16T05:30:30.362Z,3.10
2019-05-16T05:31:34.419Z,2.10
2019-05-16T05:32:30.574Z,2.50
2019-05-16T05:33:30.323Z,2.30
2019-05-16T05:34:30.477Z,2.70
2019-05-16T05:35:31.107Z,2.50
2019-05-16T05:36:30.085Z,2.20
2019-05-16T05:37:29.783Z,3.20
2019-05-16T05:38:30.961Z,3.00
2019-05-16T05:39:30.348Z,2.80
2019-05-16T05:40:29.677Z,2.90
2019-05-16T05:41:30.221Z,3.00
2019-05-16T05:42:30.543Z,3.60
2019-05-16T05:43:30.523Z,3.90
2019-05-16T05:44:30.575Z,2.60
2019-05-16T05:45:30.577Z,2.30
2019-05-16T05:46:31.405Z,4.00
2019-05-16T05:47:30.844Z,3.40
2019-05-16T05:48:30.772Z,3.60
2019-05-16T05:49:30.168Z,3.30
2019-05-16T05:50:30.606Z,2.50
2019-05-16T05:51:30.126Z,3.40
2019-05-16T05:52:30.345Z,3.60
2019-05-16T05:53:30.036Z,2.80
2019-05-16T05:54:30.679Z,3.20
2019-05-16T05:55:31.147Z,3.20
2019-05-16T05:56:30.533Z,3.00
2019-05-16T05:57:30.015Z,2.80
2019-05-16T05:58:30.914Z,2.60
2019-05-16T05:59:30.550Z,2.40
2019-05-16T06:00:30.312Z,3.60
2019-05-16T06:01:31.210Z,2.20
2019-05-16T06:02:30.814Z,2.60
2019-05-16T06:03:32.387Z,2.60
2019-05-16T06:04:30.369Z,3.10
2019-05-16T06:05:30.455Z,3.30
2019-05-16T06:06:30.407Z,3.50
2019-05-16T06:07:30.008Z,3.10
2019-05-16T06:08:30.475Z,3.00
2019-05-16T06:09:32.559Z,2.60
2019-05-16T06:10:30.311Z,3.60
2019-05-16T06:11:30.597Z,2.40
2019-05-16T06:12:30.405Z,2.90
2019-05-16T06:13:30.824Z,3.90
2019-05-16T06:14:30.599Z,4.00
2019-05-16T06:15:30.547Z,3.30
2019-05-16T06:16:30.632Z,3.90
2019-05-16T06:17:30.539Z,3.10
2019-05-16T06:18:30.304Z,4.20
2019-05-16T06:19:29.758Z,2.90
2019-05-16T06:20:30.683Z,3.40
2019-05-16T06:21:33.049Z,3.20
2019-05-16T06:22:29.918Z,4.70
2019-05-16T06:23:30.801Z,3.10
2019-05-16T06:24:30.514Z,3.90
2019-05-16T06:25:31.365Z,4.20
2019-05-16T06:26:30.196Z,2.90
2019-05-16T06:27:30.281Z,2.20
2019-05-16T06:28:30.274Z,3.40
2019-05-16T06:29:28.124Z,2.80
2019-05-16T06:30:30.415Z,4.50
2019-05-16T06:31:31.062Z,2.40
2019-05-16T06:32:30.223Z,3.00
2019-05-16T06:33:30.343Z,2.80
2019-05-16T06:34:30.031Z,2.30
2019-05-16T06:35:29.913Z,3.10
2019-05-16T06:36:30.445Z,2.60
2019-05-16T06:37:28.041Z,4.50
2019-05-16T06:38:29.920Z,2.70
2019-05-16T06:39:39.237Z,2.40
2019-05-16T06:40:29.521Z,3.00
2019-05-16T06:41:30.290Z,2.80
2019-05-16T06:42:29.914Z,2.10
2019-05-16T06:43:30.078Z,2.20
2019-05-16T06:44:27.918Z,2.50
2019-05-16T06:45:27.904Z,3.40
2019-05-16T06:46:27.903Z,2.70
2019-05-16T06:47:30.330Z,2.50
2019-05-16T06:48:30.180Z,2.80
2019-05-16T06:49:30.253Z,2.90
2019-05-16T06:50:29.755Z,2.10
2019-05-16T06:51:27.835Z,2.60
2019-05-16T06:52:29.986Z,2.50
2019-05-16T06:53:29.920Z,2.40
2019-05-16T06:54:29.876Z,2.40
2019-05-16T06:55:29.660Z,2.20
2019-05-16T06:56:30.551Z,2.60
2019-05-16T06:57:30.011Z,2.60
2019-05-16T06:58:29.996Z,3.50
2019-05-16T06:59:29.637Z,3.20
2019-05-16T07:00:29.930Z,4.00
2019-05-16T07:01:29.774Z,2.40
2019-05-16T07:02:33.636Z,2.50
2019-05-16T07:03:27.711Z,2.20
2019-05-16T07:04:27.750Z,3.80
2019-05-16T07:05:29.848Z,2.70
2019-05-16T07:06:50.807Z,2.90
2019-05-16T07:07:27.675Z,2.80
2019-05-16T07:08:27.699Z,2.50
2019-05-16T07:09:30.010Z,2.50
2019-05-16T07:10:27.645Z,2.10
2019-05-16T07:11:27.623Z,2.70
2019-05-16T07:12:30.518Z,3.30
2019-05-16T07:13:27.612Z,2.30
2019-05-16T07:14:30.747Z,2.60
2019-05-16T07:15:29.714Z,2.60
2019-05-16T07:16:29.834Z,2.40
2019-05-16T07:17:27.555Z,2.90
2019-05-16T07:18:27.544Z,2.50
2019-05-16T07:19:30.004Z,2.40
2019-05-16T07:20:30.036Z,3.40
2019-05-16T07:21:27.530Z,2.40
2019-05-16T07:22:27.539Z,2.10
2019-05-16T07:23:29.663Z,3.00
2019-05-16T07:24:27.482Z,2.20
2019-05-16T07:25:27.493Z,2.40
2019-05-16T07:26:27.459Z,2.10
2019-05-16T07:27:27.456Z,2.20
2019-05-16T07:28:29.863Z,2.10
2019-05-16T07:29:27.416Z,2.20
2019-05-16T07:30:27.425Z,2.20
2019-05-16T07:31:29.829Z,2.30
2019-05-16T07:32:30.013Z,2.10
2019-05-16T07:33:27.386Z,2.70
2019-05-16T07:34:27.403Z,2.80
2019-05-16T07:35:27.351Z,2.40
2019-05-16T07:36:27.362Z,2.30
2019-05-16T07:37:27.354Z,2.60
2019-05-16T07:38:27.331Z,2.30
2019-05-16T07:39:27.338Z,2.40
2019-05-16T07:40:27.301Z,2.70
2019-05-16T07:41:27.288Z,2.50
2019-05-16T07:42:27.292Z,3.80
2019-05-16T07:43:27.263Z,3.50
2019-05-16T07:44:27.265Z,3.00
2019-05-16T07:45:27.282Z,2.40
2019-05-16T07:46:27.231Z,2.30
2019-05-16T07:47:27.220Z,2.50
2019-05-16T07:48:27.237Z,2.80
2019-05-16T07:49:27.202Z,2.40
2019-05-16T07:50:29.890Z,2.30
2019-05-16T07:51:27.175Z,2.30
2019-05-16T07:52:27.163Z,2.50
2019-05-16T07:53:27.153Z,2.30
2019-05-16T07:54:27.149Z,2.50
2019-05-16T07:55:27.190Z,2.40
2019-05-16T07:56:27.160Z,2.40
2019-05-16T07:57:27.115Z,2.90
2019-05-16T07:58:27.125Z,2.60
2019-05-16T07:59:27.095Z,2.40
2019-05-16T08:00:43.399Z,2.40
2019-05-16T08:01:27.082Z,2.20
2019-05-16T08:02:27.083Z,2.50
2019-05-16T08:03:27.043Z,2.30
2019-05-16T08:04:27.057Z,3.20
2019-05-16T08:05:27.027Z,2.40
2019-05-16T08:06:27.013Z,2.50
2019-05-16T08:07:27.051Z,2.50
2019-05-16T08:08:27.006Z,2.50
2019-05-16T08:09:27.057Z,2.30
2019-05-16T08:10:38.079Z,2.50
2019-05-16T08:11:26.963Z,2.60
2019-05-16T08:12:27.474Z,2.50
2019-05-16T08:13:26.949Z,2.90
2019-05-16T08:14:26.922Z,2.40
2019-05-16T08:15:26.932Z,2.40
2019-05-16T08:16:26.902Z,2.10
2019-05-16T08:17:26.923Z,2.10
2019-05-16T08:18:26.881Z,2.20
2019-05-16T08:19:26.884Z,2.40
2019-05-16T08:20:26.857Z,2.30
2019-05-16T08:21:27.706Z,2.30
2019-05-16T08:22:26.906Z,2.40
2019-05-16T08:23:26.834Z,2.60
2019-05-16T08:24:26.819Z,2.50
2019-05-16T08:25:26.828Z,2.50
2019-05-16T08:26:26.827Z,2.50
2019-05-16T08:27:26.777Z,2.40
2019-05-16T08:28:26.831Z,2.50
2019-05-16T08:29:26.773Z,2.40
2019-05-16T08:30:26.756Z,2.40
2019-05-16T08:31:26.734Z,2.30
2019-05-16T08:32:26.733Z,2.20
2019-05-16T08:33:26.776Z,2.50
2019-05-16T08:34:26.709Z,2.50
2019-05-16T08:35:26.695Z,2.70
2019-05-16T08:36:26.735Z,2.70
2019-05-16T08:37:42.397Z,2.30
2019-05-16T08:38:30.353Z,2.40
2019-05-16T08:39:26.674Z,3.90
2019-05-16T08:40:26.670Z,2.60
2019-05-16T08:41:26.639Z,2.40
2019-05-16T08:42:26.622Z,2.40
2019-05-16T08:43:26.607Z,2.50
2019-05-16T08:44:26.609Z,2.50
2019-05-16T08:45:26.653Z,3.40
2019-05-16T08:46:26.622Z,2.50
2019-05-16T08:47:26.573Z,3.00
2019-05-16T08:48:26.559Z,2.60
2019-05-16T08:49:26.537Z,2.50
2019-05-16T08:50:26.530Z,2.40
2019-05-16T08:51:26.549Z,2.40
2019-05-16T08:52:26.581Z,2.50
2019-05-16T08:53:26.504Z,2.30
2019-05-16T08:54:26.552Z,2.90
2019-05-16T08:55:26.480Z,2.30
2019-05-16T08:56:26.533Z,2.50
2019-05-16T08:57:27.960Z,2.30
2019-05-16T08:58:26.444Z,2.40
2019-05-16T08:59:26.440Z,2.60
2019-05-16T09:00:26.424Z,3.10
2019-05-16T09:01:26.414Z,2.20
2019-05-16T09:02:33.568Z,2.40
2019-05-16T09:03:26.396Z,2.40
2019-05-16T09:04:26.371Z,2.40
2019-05-16T09:05:26.461Z,2.70
2019-05-16T09:06:26.368Z,2.50
2019-05-16T09:07:26.375Z,2.30
2019-05-16T09:08:26.343Z,2.10
2019-05-16T09:09:41.082Z,2.30
2019-05-16T09:10:49.159Z,2.90
2019-05-16T09:11:44.217Z,2.60
2019-05-16T09:12:27.844Z,2.30
2019-05-16T09:13:27.947Z,2.40
2019-05-16T09:14:27.660Z,2.30
2019-05-16T09:15:27.334Z,2.20
2019-05-16T09:16:27.498Z,2.10
2019-05-16T09:17:27.745Z,2.30
2019-05-16T09:18:28.923Z,2.00
2019-05-16T09:19:27.564Z,2.20
2019-05-16T09:20:28.050Z,2.20
2019-05-16T09:21:27.479Z,7.10
2019-05-16T09:22:28.155Z,3.10
2019-05-16T09:23:26.782Z,2.20
2019-05-16T09:24:27.197Z,5.40
2019-05-16T09:25:27.446Z,3.60
2019-05-16T09:26:27.757Z,2.30
2019-05-16T09:27:27.300Z,2.40
2019-05-16T09:28:28.376Z,2.50
2019-05-16T09:29:27.257Z,2.50
2019-05-16T09:30:27.484Z,2.80
2019-05-16T09:31:27.510Z,2.80
2019-05-16T09:32:27.877Z,2.50
2019-05-16T09:33:26.999Z,2.70
2019-05-16T09:34:28.726Z,2.50
2019-05-16T09:35:28.089Z,2.60
2019-05-16T09:36:28.720Z,2.40
2019-05-16T09:37:26.883Z,2.50
2019-05-16T09:38:28.499Z,2.20
2019-05-16T09:39:27.751Z,2.30
2019-05-16T09:40:27.799Z,3.70
2019-05-16T09:41:27.244Z,2.40
2019-05-16T09:42:27.654Z,2.90
2019-05-16T09:43:28.109Z,2.00
2019-05-16T09:44:27.404Z,2.20
2019-05-16T09:45:27.262Z,1.90
2019-05-16T09:46:27.559Z,2.20
2019-05-16T09:47:28.159Z,1.90
2019-05-16T09:48:28.017Z,2.20
2019-05-16T09:49:26.238Z,2.00
2019-05-16T09:50:26.627Z,2.60
2019-05-16T09:51:27.164Z,3.40
2019-05-16T09:52:27.370Z,2.30
2019-05-16T09:53:27.600Z,2.70
2019-05-16T09:54:27.321Z,3.50
2019-05-16T09:55:26.881Z,2.50
2019-05-16T09:56:26.978Z,4.60
2019-05-16T09:57:27.719Z,3.20
2019-05-16T09:58:27.812Z,2.70
2019-05-16T09:59:26.333Z,3.20
2019-05-16T10:00:26.889Z,2.40
2019-05-16T10:01:27.608Z,2.40
2019-05-16T10:02:27.463Z,2.50
2019-05-16T10:03:27.054Z,2.40
2019-05-16T10:04:26.732Z,2.30
2019-05-16T10:05:26.607Z,2.20
2019-05-16T10:06:27.628Z,2.50
2019-05-16T10:07:28.275Z,2.30
2019-05-16T10:08:26.730Z,2.40
2019-05-16T10:09:38.564Z,2.30
2019-05-16T10:10:26.256Z,2.60
2019-05-16T10:11:31.211Z,2.50
2019-05-16T10:12:26.629Z,2.60
2019-05-16T10:13:27.799Z,2.70
2019-05-16T10:14:26.880Z,2.80
2019-05-16T10:15:26.984Z,2.70
2019-05-16T10:16:27.542Z,2.20
2019-05-16T10:17:27.255Z,3.20
2019-05-16T10:18:27.780Z,3.10
2019-05-16T10:19:27.576Z,2.90
2019-05-16T10:20:27.397Z,2.80
2019-05-16T10:21:27.184Z,3.00
2019-05-16T10:22:27.265Z,3.20
2019-05-16T10:23:25.526Z,2.90
2019-05-16T10:24:26.844Z,3.20
2019-05-16T10:25:27.725Z,2.70
2019-05-16T10:26:27.703Z,2.70
2019-05-16T10:27:26.483Z,3.00
2019-05-16T10:28:27.531Z,2.90
2019-05-16T10:29:27.492Z,3.20
2019-05-16T10:30:26.935Z,3.10
2019-05-16T10:31:38.512Z,3.30
2019-05-16T10:32:27.401Z,3.40
2019-05-16T10:33:27.544Z,3.10
2019-05-16T10:34:26.625Z,3.90
2019-05-16T10:35:29.135Z,3.60
2019-05-16T10:36:27.941Z,3.20
2019-05-16T10:37:26.849Z,3.00
2019-05-16T10:38:28.454Z,3.40
2019-05-16T10:39:26.797Z,3.40
2019-05-16T10:40:27.326Z,3.00
2019-05-16T10:41:25.325Z,3.10
2019-05-16T10:42:29.040Z,3.30
2019-05-16T10:43:26.445Z,3.00
2019-05-16T10:44:27.970Z,2.90
2019-05-16T10:45:27.239Z,3.10
2019-05-16T10:46:27.031Z,2.90
2019-05-16T10:47:30.478Z,2.90
2019-05-16T10:48:27.004Z,3.00
2019-05-16T10:49:34.348Z,2.90
2019-05-16T10:50:27.431Z,2.70
2019-05-16T10:51:26.957Z,3.10
2019-05-16T10:52:26.998Z,2.80
2019-05-16T10:53:53.730Z,2.70
2019-05-16T10:54:27.415Z,2.70
2019-05-16T10:55:27.639Z,2.90
2019-05-16T10:56:25.189Z,2.70
2019-05-16T10:57:29.456Z,2.80
2019-05-16T10:58:36.553Z,3.10
2019-05-16T10:59:54.673Z,2.80
2019-05-16T11:00:46.939Z,2.70
2019-05-16T11:01:30.446Z,2.80
2019-05-16T11:02:27.395Z,2.90
2019-05-16T11:03:27.415Z,2.80
2019-05-16T11:04:33.394Z,3.20
2019-05-16T11:05:33.095Z,3.10
2019-05-16T11:06:28.854Z,3.30
2019-05-16T11:07:29.477Z,3.40
2019-05-16T11:08:25.050Z,3.30
2019-05-16T11:09:25.010Z,3.50
2019-05-16T11:10:26.845Z,3.50
2019-05-16T11:11:27.277Z,3.20
2019-05-16T11:12:45.379Z,3.20
2019-05-16T11:13:27.763Z,3.40
2019-05-16T11:14:27.948Z,3.40
2019-05-16T11:15:27.587Z,3.80
2019-05-16T11:16:27.430Z,3.70
2019-05-16T11:17:27.642Z,3.60
2019-05-16T11:18:27.115Z,3.80
2019-05-16T11:19:27.999Z,3.60
2019-05-16T11:20:26.776Z,3.50
2019-05-16T11:21:26.820Z,3.30
2019-05-16T11:22:29.501Z,4.00
2019-05-16T11:23:30.796Z,4.20
2019-05-16T11:24:28.945Z,3.90
2019-05-16T11:25:28.845Z,4.30
2019-05-16T11:26:29.899Z,4.70
2019-05-16T11:27:24.811Z,4.50
2019-05-16T11:28:25.310Z,4.90
2019-05-16T11:29:24.818Z,5.50
2019-05-16T11:30:24.807Z,5.20
2019-05-16T11:31:26.676Z,6.00
2019-05-16T11:32:26.998Z,5.40
2019-05-16T11:33:27.897Z,5.90
2019-05-16T11:34:26.681Z,6.80
2019-05-16T11:35:27.103Z,6.10
2019-05-16T11:36:26.802Z,7.20
2019-05-16T11:37:24.733Z,6.10
2019-05-16T11:38:24.690Z,5.90
2019-05-16T11:39:24.703Z,6.50
2019-05-16T11:40:24.717Z,6.10
2019-05-16T11:41:27.320Z,6.20
2019-05-16T11:42:24.673Z,6.10
2019-05-16T11:43:24.673Z,6.30
2019-05-16T11:44:28.314Z,6.30
2019-05-16T11:45:24.624Z,6.20
2019-05-16T11:46:27.868Z,6.50
2019-05-16T11:47:24.626Z,6.70
2019-05-16T11:48:25.448Z,6.80
2019-05-16T11:49:24.581Z,6.50
2019-05-16T11:50:24.572Z,6.70
2019-05-16T11:51:26.606Z,7.10
2019-05-16T11:52:24.565Z,6.30
2019-05-16T11:53:27.980Z,7.10
2019-05-16T11:54:26.588Z,7.10
2019-05-16T11:55:32.470Z,6.90
2019-05-16T11:56:25.502Z,7.20
2019-05-16T11:57:24.484Z,7.20
2019-05-16T11:58:26.634Z,7.30
2019-05-16T11:59:24.473Z,7.50
2019-05-16T12:00:24.501Z,7.20
2019-05-16T12:01:24.440Z,7.00
2019-05-16T12:02:27.588Z,7.60
2019-05-16T12:03:24.424Z,7.70
2019-05-16T12:04:24.414Z,6.90
2019-05-16T12:05:26.972Z,7.20
2019-05-16T12:06:26.642Z,7.40
2019-05-16T12:07:32.309Z,7.40
2019-05-16T12:08:26.447Z,7.90
2019-05-16T12:09:32.167Z,7.70
2019-05-16T12:10:24.356Z,7.60
2019-05-16T12:11:27.213Z,7.50
2019-05-16T12:12:24.323Z,7.60
2019-05-16T12:13:29.739Z,7.00
2019-05-16T12:14:24.305Z,6.30
2019-05-16T12:15:24.301Z,6.40
2019-05-16T12:16:24.318Z,6.20
2019-05-16T12:17:24.281Z,6.50
2019-05-16T12:18:26.392Z,5.90
2019-05-16T12:19:33.421Z,6.00
2019-05-16T12:20:24.238Z,6.00
2019-05-16T12:21:24.273Z,5.80
2019-05-16T12:22:26.689Z,5.90
2019-05-16T12:23:24.214Z,5.70
2019-05-16T12:24:33.017Z,6.00
2019-05-16T12:25:24.224Z,5.70
2019-05-16T12:26:24.169Z,5.60
2019-05-16T12:27:32.041Z,5.30
2019-05-16T12:28:27.107Z,5.80
2019-05-16T12:29:24.163Z,5.90
2019-05-16T12:30:24.126Z,5.50
2019-05-16T12:31:24.120Z,6.10
2019-05-16T12:32:24.105Z,5.80
2019-05-16T12:33:24.130Z,5.70
2019-05-16T12:34:24.093Z,6.20
2019-05-16T12:35:24.085Z,6.50
2019-05-16T12:36:26.611Z,6.00
2019-05-16T12:37:24.047Z,5.70
2019-05-16T12:38:24.111Z,5.70
2019-05-16T12:39:26.676Z,6.00
2019-05-16T12:40:24.033Z,5.50
2019-05-16T12:41:24.050Z,5.50
2019-05-16T12:42:24.042Z,5.60
2019-05-16T12:43:43.349Z,5.10
2019-05-16T12:44:24.014Z,5.20
2019-05-16T12:45:23.973Z,5.10
2019-05-16T12:46:23.972Z,5.30
2019-05-16T12:47:23.939Z,5.40
2019-05-16T12:48:23.927Z,6.20
2019-05-16T12:49:23.952Z,5.50
2019-05-16T12:50:23.925Z,5.60
2019-05-16T12:51:26.284Z,5.90
2019-05-16T12:52:23.904Z,5.30
2019-05-16T12:53:31.723Z,5.20
2019-05-16T12:54:23.906Z,6.40
2019-05-16T12:55:23.850Z,5.20
2019-05-16T12:56:26.914Z,5.20
2019-05-16T12:57:30.131Z,5.10
2019-05-16T12:58:25.987Z,4.10
2019-05-16T12:59:23.852Z,4.20
2019-05-16T13:00:23.797Z,4.40
2019-05-16T13:01:30.631Z,4.30
2019-05-16T13:02:23.802Z,3.90
2019-05-16T13:03:23.808Z,4.40
2019-05-16T13:04:23.795Z,4.60
2019-05-16T13:05:23.742Z,4.30
2019-05-16T13:06:23.731Z,4.00
2019-05-16T13:07:23.724Z,4.10
2019-05-16T13:08:23.749Z,4.30
2019-05-16T13:09:23.714Z,4.40
2019-05-16T13:10:23.689Z,3.90
2019-05-16T13:11:23.680Z,4.40
2019-05-16T13:12:23.667Z,4.00
2019-05-16T13:13:23.702Z,3.70
2019-05-16T13:14:23.681Z,3.50
2019-05-16T13:15:23.656Z,4.20
2019-05-16T13:16:23.627Z,3.80
2019-05-16T13:17:23.619Z,3.90
2019-05-16T13:18:23.600Z,4.10